createdAt,value
2018-04-14T00:01:15.669Z,7.98
2018-04-14T00:03:43.146Z,7.97
2018-04-14T00:06:10.613Z,7.90
2018-04-14T00:08:38.111Z,7.79
2018-04-14T00:11:05.603Z,7.74
2018-04-14T00:13:33.071Z,7.73
2018-04-14T00:16:00.582Z,7.60
2018-04-14T00:18:28.077Z,7.59
2018-04-14T00:20:55.567Z,7.57
2018-04-14T00:23:23.050Z,7.52
2018-04-14T00:25:50.547Z,7.47
2018-04-14T00:28:18.042Z,7.45
2018-04-14T00:30:45.534Z,7.44
2018-04-14T00:33:13.042Z,7.44
2018-04-14T00:35:40.539Z,7.44
2018-04-14T00:38:08.042Z,7.46
2018-04-14T00:40:35.554Z,7.40
2018-04-14T00:43:03.060Z,7.37
2018-04-14T00:45:30.551Z,7.31
2018-04-14T00:47:58.052Z,7.25
2018-04-14T00:50:25.687Z,7.20
2018-04-14T00:52:53.229Z,7.14
2018-04-14T00:55:20.724Z,7.14
2018-04-14T00:57:48.438Z,7.18
2018-04-14T01:00:16.051Z,7.17
2018-04-14T01:02:43.518Z,7.28
2018-04-14T01:05:11.012Z,7.25
2018-04-14T01:07:38.585Z,7.28
2018-04-14T01:10:06.062Z,7.22
2018-04-14T01:12:33.592Z,7.20
2018-04-14T01:15:01.112Z,7.29
2018-04-14T01:17:28.721Z,7.22
2018-04-14T01:19:56.255Z,7.23
2018-04-14T01:22:23.753Z,7.16
2018-04-14T01:24:51.553Z,7.07
2018-04-14T01:27:19.061Z,7.10
2018-04-14T01:29:46.585Z,7.01
2018-04-14T01:32:14.103Z,7.03
2018-04-14T01:34:41.606Z,7.01
2018-04-14T01:37:09.108Z,7.10
2018-04-14T01:39:36.615Z,7.13
2018-04-14T01:42:04.227Z,7.12
2018-04-14T01:44:31.735Z,7.22
2018-04-14T01:46:59.250Z,7.19
2018-04-14T01:49:26.750Z,7.21
2018-04-14T01:51:54.243Z,7.16
2018-04-14T01:54:21.751Z,7.11
2018-04-14T01:56:49.281Z,7.05
2018-04-14T01:59:16.795Z,6.98
2018-04-14T02:01:44.287Z,6.96
2018-04-14T02:04:11.795Z,6.90
2018-04-14T02:06:39.305Z,6.84
2018-04-14T02:09:06.889Z,6.92
2018-04-14T02:11:34.363Z,6.86
2018-04-14T02:14:01.873Z,6.75
2018-04-14T02:16:29.481Z,6.75
2018-04-14T02:18:56.967Z,6.73
2018-04-14T02:21:24.470Z,6.67
2018-04-14T02:23:51.949Z,6.63
2018-04-14T02:26:19.458Z,6.62
2018-04-14T02:28:46.996Z,6.61
2018-04-14T02:31:14.488Z,6.52
2018-04-14T02:33:42.014Z,6.55
2018-04-14T02:36:09.510Z,6.57
2018-04-14T02:38:37.026Z,6.57
2018-04-14T02:41:04.515Z,6.60
2018-04-14T02:43:32.016Z,6.59
2018-04-14T02:45:59.493Z,6.46
2018-04-14T02:48:26.976Z,6.41
2018-04-14T02:50:54.489Z,6.36
2018-04-14T02:53:22.060Z,6.39
2018-04-14T02:55:49.589Z,6.36
2018-04-14T02:58:17.110Z,6.41
2018-04-14T03:00:44.644Z,6.39
2018-04-14T03:03:12.162Z,6.34
2018-04-14T03:05:40.611Z,6.31
2018-04-14T03:08:08.130Z,6.29
2018-04-14T03:10:35.621Z,6.25
2018-04-14T03:13:03.150Z,6.15
2018-04-14T03:15:30.704Z,6.19
2018-04-14T03:17:58.290Z,6.20
2018-04-14T03:20:25.811Z,6.17
2018-04-14T03:22:53.350Z,6.12
2018-04-14T03:25:20.890Z,6.10
2018-04-14T03:27:48.477Z,6.18
2018-04-14T03:30:16.064Z,6.20
2018-04-14T03:32:43.582Z,6.13
2018-04-14T03:35:11.193Z,6.12
2018-04-14T03:37:38.689Z,6.07
2018-04-14T03:40:06.195Z,6.05
2018-04-14T03:42:33.696Z,6.05
2018-04-14T03:45:01.189Z,6.06
2018-04-14T03:47:28.705Z,6.15
2018-04-14T03:49:56.210Z,6.16
2018-04-14T03:52:23.722Z,6.14
2018-04-14T03:54:51.223Z,6.11
2018-04-14T03:57:18.733Z,6.14
2018-04-14T03:59:46.224Z,6.16
2018-04-14T04:02:13.741Z,6.03
2018-04-14T04:04:41.271Z,6.08
2018-04-14T04:07:08.755Z,6.10
2018-04-14T04:09:36.265Z,6.08
2018-04-14T04:12:03.757Z,6.14
2018-04-14T04:14:31.256Z,6.10
2018-04-14T04:16:58.787Z,6.14
2018-04-14T04:19:38.021Z,6.14
2018-04-14T04:22:18.651Z,6.09
2018-04-14T04:24:58.121Z,6.07
2018-04-14T04:27:25.711Z,5.94
2018-04-14T04:29:53.335Z,5.99
2018-04-14T04:32:20.839Z,5.94
2018-04-14T04:34:48.313Z,6.01
2018-04-14T04:37:16.806Z,5.96
2018-04-14T04:39:44.318Z,6.00
2018-04-14T04:42:11.804Z,5.91
2018-04-14T04:44:39.428Z,5.89
2018-04-14T04:47:06.914Z,5.88
2018-04-14T04:49:34.408Z,5.93
2018-04-14T04:52:01.880Z,6.06
2018-04-14T04:54:29.396Z,6.05
2018-04-14T04:56:56.892Z,6.18
2018-04-14T04:59:24.405Z,6.24
2018-04-14T05:01:51.928Z,6.27
2018-04-14T05:04:19.425Z,6.44
2018-04-14T05:06:46.985Z,6.50
2018-04-14T05:09:14.472Z,6.56
2018-04-14T05:11:41.988Z,6.69
2018-04-14T05:14:09.475Z,6.76
2018-04-14T05:16:36.995Z,6.86
2018-04-14T05:19:04.467Z,6.94
2018-04-14T05:21:31.945Z,7.00
2018-04-14T05:23:59.438Z,7.04
2018-04-14T05:26:26.940Z,7.08
2018-04-14T05:28:54.450Z,7.19
2018-04-14T05:31:22.514Z,7.23
2018-04-14T05:33:50.129Z,7.20
2018-04-14T05:36:17.628Z,7.26
2018-04-14T05:38:45.142Z,7.29
2018-04-14T05:41:12.646Z,7.36
2018-04-14T05:43:40.144Z,7.38
2018-04-14T05:46:07.665Z,7.29
2018-04-14T05:48:35.241Z,7.37
2018-04-14T05:51:02.748Z,7.52
2018-04-14T05:53:30.257Z,7.54
2018-04-14T05:55:57.743Z,7.62
2018-04-14T05:58:25.226Z,7.83
2018-04-14T06:00:52.738Z,7.90
2018-04-14T06:03:20.251Z,8.04
2018-04-14T06:05:47.774Z,8.26
2018-04-14T06:08:15.269Z,8.41
2018-04-14T06:10:43.770Z,8.57
2018-04-14T06:16:06.600Z,8.89
2018-04-14T06:18:34.136Z,9.10
2018-04-14T06:21:01.625Z,9.20
2018-04-14T06:23:29.669Z,9.38
2018-04-14T06:25:57.418Z,9.51
2018-04-14T06:28:24.905Z,9.75
2018-04-14T06:30:52.558Z,9.96
2018-04-14T06:33:20.155Z,10.08
2018-04-14T06:35:47.668Z,10.12
2018-04-14T06:38:15.203Z,10.27
2018-04-14T06:40:42.697Z,10.41
2018-04-14T06:43:10.236Z,10.70
2018-04-14T06:45:37.771Z,10.85
2018-04-14T06:48:05.251Z,10.84
2018-04-14T06:50:32.870Z,10.86
2018-04-14T06:53:00.361Z,11.02
2018-04-14T06:55:27.848Z,11.26
2018-04-14T06:57:55.347Z,11.46
2018-04-14T07:00:22.903Z,11.55
2018-04-14T07:02:50.507Z,11.76
2018-04-14T07:05:17.980Z,12.02
2018-04-14T07:07:45.496Z,11.88
2018-04-14T07:10:12.992Z,12.11
2018-04-14T07:12:40.582Z,12.33
2018-04-14T07:15:08.133Z,12.50
2018-04-14T07:17:35.649Z,12.46
2018-04-14T07:20:03.338Z,12.56
2018-04-14T07:25:04.773Z,12.82
2018-04-14T07:27:32.291Z,13.07
2018-04-14T07:29:59.800Z,13.29
2018-04-14T07:32:27.306Z,13.43
2018-04-14T07:34:55.006Z,13.57
2018-04-14T07:37:22.547Z,14.29
2018-04-14T07:39:50.118Z,14.75
2018-04-14T07:42:17.639Z,14.91
2018-04-14T07:44:45.147Z,14.59
2018-04-14T07:47:12.973Z,14.91
2018-04-14T07:49:40.471Z,14.95
2018-04-14T07:52:07.977Z,14.92
2018-04-14T07:54:35.457Z,15.21
2018-04-14T07:57:03.311Z,15.23
2018-04-14T07:59:31.990Z,15.19
2018-04-14T08:02:01.625Z,15.19
2018-04-14T08:04:29.446Z,15.05
2018-04-14T08:06:57.356Z,15.15
2018-04-14T08:09:25.019Z,15.26
2018-04-14T08:11:53.005Z,15.48
2018-04-14T08:14:23.056Z,15.86
2018-04-14T08:16:50.906Z,15.87
2018-04-14T08:19:18.696Z,16.13
2018-04-14T08:21:46.401Z,16.02
2018-04-14T08:24:15.718Z,16.38
2018-04-14T08:26:43.699Z,16.59
2018-04-14T08:29:13.855Z,16.69
2018-04-14T08:31:41.691Z,16.41
2018-04-14T08:34:10.153Z,16.75
2018-04-14T08:36:45.109Z,16.96
2018-04-14T08:39:14.167Z,17.13
2018-04-14T08:41:41.936Z,17.47
2018-04-14T08:44:10.128Z,17.63
2018-04-14T08:46:41.583Z,17.68
2018-04-14T08:49:09.959Z,17.98
2018-04-14T08:51:38.640Z,18.06
2018-04-14T08:54:08.991Z,18.02
2018-04-14T08:56:36.763Z,18.46
2018-04-14T08:59:04.336Z,18.92
2018-04-14T09:01:35.641Z,18.89
2018-04-14T09:04:06.407Z,18.81
2018-04-14T09:06:34.630Z,19.03
2018-04-14T09:09:04.950Z,19.49
2018-04-14T09:11:33.139Z,19.37
2018-04-14T09:14:01.387Z,19.28
2018-04-14T09:16:29.053Z,19.66
2018-04-14T09:18:57.221Z,19.65
2018-04-14T09:21:25.134Z,19.75
2018-04-14T09:23:55.635Z,20.02
2018-04-14T09:26:23.340Z,19.63
2018-04-14T09:28:51.719Z,19.94
2018-04-14T09:31:19.992Z,19.91
2018-04-14T09:33:48.300Z,19.40
2018-04-14T09:36:15.848Z,19.71
2018-04-14T09:38:47.682Z,20.15
2018-04-14T09:41:16.929Z,20.08
2018-04-14T09:43:44.794Z,20.26
2018-04-14T09:46:12.818Z,20.49
2018-04-14T09:48:41.857Z,20.56
2018-04-14T09:51:12.004Z,20.89
2018-04-14T09:53:42.025Z,20.78
2018-04-14T09:56:09.779Z,21.36
2018-04-14T09:58:37.428Z,21.20
2018-04-14T10:01:14.275Z,21.70
2018-04-14T10:03:56.044Z,21.67
2018-04-14T10:06:27.447Z,21.69
2018-04-14T10:08:56.130Z,21.77
2018-04-14T10:11:25.236Z,21.82
2018-04-14T10:13:54.494Z,22.22
2018-04-14T10:16:22.212Z,22.49
2018-04-14T10:18:50.487Z,21.44
2018-04-14T10:21:18.311Z,21.45
2018-04-14T10:23:46.193Z,21.64
2018-04-14T10:26:14.310Z,20.56
2018-04-14T10:28:42.610Z,21.75
2018-04-14T10:31:10.577Z,21.72
2018-04-14T10:33:40.151Z,21.81
2018-04-14T10:36:07.663Z,21.72
2018-04-14T10:38:45.581Z,21.88
2018-04-14T10:41:22.197Z,22.13
2018-04-14T10:43:50.649Z,22.16
2018-04-14T10:46:18.863Z,22.22
2018-04-14T10:48:46.733Z,22.26
2018-04-14T10:51:14.300Z,22.63
2018-04-14T10:53:42.321Z,22.84
2018-04-14T10:56:10.234Z,23.09
2018-04-14T10:58:38.909Z,22.98
2018-04-14T11:01:06.519Z,22.79
2018-04-14T11:03:34.066Z,22.80
2018-04-14T11:06:01.584Z,23.52
2018-04-14T11:08:29.121Z,23.38
2018-04-14T11:10:56.627Z,23.21
2018-04-14T11:13:24.112Z,23.89
2018-04-14T11:15:51.630Z,24.14
2018-04-14T11:18:19.129Z,24.90
2018-04-14T11:20:46.611Z,24.85
2018-04-14T11:23:14.288Z,24.35
2018-04-14T11:25:41.745Z,24.12
2018-04-14T11:28:09.282Z,24.39
2018-04-14T11:30:36.778Z,23.68
2018-04-14T11:33:04.253Z,24.18
2018-04-14T11:35:31.726Z,24.11
2018-04-14T11:37:59.374Z,24.60
2018-04-14T11:40:26.864Z,24.41
2018-04-14T11:42:54.377Z,24.41
2018-04-14T11:45:21.971Z,24.83
2018-04-14T11:47:49.445Z,24.56
2018-04-14T11:50:16.930Z,25.82
2018-04-14T11:52:44.405Z,26.06
2018-04-14T11:55:11.922Z,27.44
2018-04-14T11:57:39.423Z,27.48
2018-04-14T12:00:06.892Z,26.40
2018-04-14T12:02:34.407Z,26.69
2018-04-14T12:05:02.598Z,26.60
2018-04-14T12:07:30.111Z,27.17
2018-04-14T12:09:57.577Z,26.98
2018-04-14T12:12:25.210Z,28.08
2018-04-14T12:14:52.804Z,27.21
2018-04-14T12:17:20.312Z,27.36
2018-04-14T12:19:47.822Z,26.84
2018-04-14T12:22:15.400Z,28.43
2018-04-14T12:24:42.917Z,29.76
2018-04-14T12:27:10.569Z,30.42
2018-04-14T12:29:38.071Z,31.39
2018-04-14T12:32:05.551Z,32.24
2018-04-14T12:34:33.061Z,31.87
2018-04-14T12:37:00.597Z,32.28
2018-04-14T12:39:28.289Z,35.35
2018-04-14T12:41:55.846Z,37.33
2018-04-14T12:44:23.389Z,38.38
2018-04-14T12:46:50.892Z,39.70
2018-04-14T12:49:18.730Z,40.83
2018-04-14T12:51:46.839Z,40.20
2018-04-14T12:54:14.324Z,39.14
2018-04-14T12:56:42.052Z,38.33
2018-04-14T12:59:09.556Z,37.97
2018-04-14T13:01:37.053Z,40.49
2018-04-14T13:04:06.833Z,39.53
2018-04-14T13:06:34.382Z,38.36
2018-04-14T13:09:01.889Z,39.43
2018-04-14T13:11:29.422Z,40.50
2018-04-14T13:13:56.903Z,39.62
2018-04-14T13:16:24.421Z,39.48
2018-04-14T13:18:51.886Z,38.84
2018-04-14T13:21:19.376Z,38.85
2018-04-14T13:23:46.881Z,38.36
2018-04-14T13:26:14.357Z,39.58
2018-04-14T13:28:41.832Z,39.32
2018-04-14T13:31:09.392Z,38.11
2018-04-14T13:33:36.880Z,37.61
2018-04-14T13:36:04.346Z,37.13
2018-04-14T13:38:31.844Z,35.91
2018-04-14T13:40:59.336Z,35.70
2018-04-14T13:49:36.755Z,34.33
2018-04-14T13:52:04.249Z,35.07
2018-04-14T13:54:31.778Z,34.64
2018-04-14T13:56:59.402Z,36.04
2018-04-14T13:59:26.996Z,33.55
2018-04-14T14:01:54.512Z,34.59
2018-04-14T14:04:22.018Z,34.88
2018-04-14T14:06:49.489Z,35.18
2018-04-14T14:09:16.997Z,35.90
2018-04-14T14:11:44.487Z,35.30
2018-04-14T14:14:11.977Z,34.32
2018-04-14T14:16:39.467Z,34.72
2018-04-14T14:19:07.054Z,35.59
2018-04-14T14:21:34.522Z,36.96
2018-04-14T14:24:02.196Z,37.47
2018-04-14T14:26:29.642Z,38.58
2018-04-14T14:28:57.102Z,35.54
2018-04-14T14:31:24.545Z,35.39
2018-04-14T14:33:52.062Z,36.84
2018-04-14T14:36:19.556Z,38.42
2018-04-14T14:38:47.025Z,37.76
2018-04-14T14:41:14.516Z,38.92
2018-04-14T14:43:41.992Z,39.34
2018-04-14T14:46:09.498Z,41.60
2018-04-14T14:48:36.975Z,40.88
2018-04-14T14:51:04.433Z,38.14
2018-04-14T14:53:31.890Z,37.68
2018-04-14T14:55:59.404Z,37.20
2018-04-14T14:58:26.898Z,36.93
2018-04-14T15:00:54.577Z,39.00
2018-04-14T15:03:22.044Z,39.07
2018-04-14T15:05:49.505Z,38.44
2018-04-14T15:08:16.971Z,39.77
2018-04-14T15:10:44.449Z,40.45
2018-04-14T15:13:11.990Z,38.80
2018-04-14T15:15:39.445Z,38.04
2018-04-14T15:18:07.008Z,37.60
2018-04-14T15:20:34.465Z,35.13
2018-04-14T15:23:01.947Z,34.93
2018-04-14T15:25:29.527Z,34.69
2018-04-14T15:27:57.017Z,34.07
2018-04-14T15:30:24.574Z,34.63
2018-04-14T15:32:52.065Z,35.02
2018-04-14T15:35:19.556Z,35.90
2018-04-14T15:37:47.062Z,37.01
2018-04-14T15:40:14.714Z,38.87
2018-04-14T15:42:42.173Z,39.08
2018-04-14T15:45:09.653Z,38.61
2018-04-14T15:47:37.138Z,39.91
2018-04-14T15:50:04.608Z,39.40
2018-04-14T15:52:32.108Z,38.09
2018-04-14T15:54:59.628Z,36.62
2018-04-14T15:57:27.109Z,37.99
2018-04-14T15:59:54.564Z,39.37
2018-04-14T16:02:22.059Z,37.11
2018-04-14T16:04:49.537Z,37.73
2018-04-14T16:07:17.057Z,36.23
2018-04-14T16:09:44.565Z,34.89
2018-04-14T16:12:12.713Z,33.67
2018-04-14T16:14:40.203Z,32.11
2018-04-14T16:17:08.018Z,31.56
2018-04-14T16:19:35.532Z,30.73
2018-04-14T16:22:03.022Z,29.67
2018-04-14T16:24:30.495Z,28.59
2018-04-14T16:26:58.044Z,28.28
2018-04-14T16:29:25.521Z,27.85
2018-04-14T16:31:53.201Z,26.94
2018-04-14T16:34:20.685Z,26.23
2018-04-14T16:36:48.167Z,26.25
2018-04-14T16:39:15.788Z,25.44
2018-04-14T16:41:43.681Z,25.21
2018-04-14T16:44:11.460Z,24.98
2018-04-14T16:46:39.005Z,24.58
2018-04-14T16:49:06.580Z,24.07
2018-04-14T16:51:34.071Z,23.37
2018-04-14T16:54:01.659Z,23.08
2018-04-14T16:56:29.196Z,22.87
2018-04-14T16:58:56.708Z,22.57
2018-04-14T17:01:24.199Z,22.29
2018-04-14T17:03:51.684Z,22.11
2018-04-14T17:06:19.324Z,21.97
2018-04-14T17:08:46.815Z,21.69
2018-04-14T17:11:14.395Z,21.52
2018-04-14T17:13:41.904Z,21.23
2018-04-14T17:16:09.567Z,21.19
2018-04-14T17:18:37.082Z,21.09
2018-04-14T17:21:04.588Z,20.95
2018-04-14T17:23:32.066Z,20.94
2018-04-14T17:25:59.552Z,20.96
2018-04-14T17:28:27.053Z,20.82
2018-04-14T17:30:54.541Z,20.71
2018-04-14T17:33:22.053Z,20.74
2018-04-14T17:35:49.618Z,20.67
2018-04-14T17:38:17.115Z,20.63
2018-04-14T17:40:44.601Z,20.53
2018-04-14T17:43:12.106Z,20.52
2018-04-14T17:45:39.567Z,20.45
2018-04-14T17:48:07.029Z,20.27
2018-04-14T17:50:34.497Z,20.18
2018-04-14T17:53:01.963Z,19.94
2018-04-14T17:55:29.474Z,19.83
2018-04-14T17:57:56.951Z,19.57
2018-04-14T18:00:24.448Z,19.26
2018-04-14T18:02:51.931Z,19.06
2018-04-14T18:05:19.404Z,18.72
2018-04-14T18:07:46.920Z,18.57
2018-04-14T18:10:14.502Z,18.25
2018-04-14T18:12:43.021Z,17.99
2018-04-14T18:15:10.498Z,17.74
2018-04-14T18:17:38.086Z,17.55
2018-04-14T18:20:05.743Z,17.37
2018-04-14T18:22:33.350Z,17.08
2018-04-14T18:25:00.823Z,16.92
2018-04-14T18:27:28.365Z,16.74
2018-04-14T18:29:55.953Z,16.63
2018-04-14T18:32:24.749Z,16.42
2018-04-14T18:34:52.350Z,16.37
2018-04-14T18:37:22.849Z,16.24
2018-04-14T18:39:50.339Z,16.14
2018-04-14T18:42:17.921Z,16.08
2018-04-14T18:44:45.565Z,15.99
2018-04-14T18:47:13.219Z,15.89
2018-04-14T18:49:40.760Z,15.83
2018-04-14T18:52:08.231Z,15.77
2018-04-14T18:54:37.049Z,15.77
2018-04-14T18:57:04.634Z,15.66
2018-04-14T19:02:14.789Z,15.56
2018-04-14T19:04:42.286Z,15.52
2018-04-14T19:07:09.797Z,15.41
2018-04-14T19:09:39.004Z,15.39
2018-04-14T19:12:06.508Z,15.32
2018-04-14T19:14:33.977Z,15.24
2018-04-14T19:17:01.518Z,15.21
2018-04-14T19:19:29.049Z,15.16
2018-04-14T19:21:56.628Z,15.17
2018-04-14T19:24:24.133Z,15.10
2018-04-14T19:26:51.706Z,15.07
2018-04-14T19:29:23.730Z,15.08
2018-04-14T19:31:51.361Z,14.98
2018-04-14T19:34:18.841Z,14.93
2018-04-14T19:36:46.419Z,14.92
2018-04-14T19:39:13.974Z,14.86
2018-04-14T19:41:41.498Z,14.90
2018-04-14T19:44:09.024Z,14.91
2018-04-14T19:46:36.520Z,14.88
2018-04-14T19:49:04.069Z,14.88
2018-04-14T19:51:32.744Z,14.89
2018-04-14T19:54:01.492Z,14.83
2018-04-14T19:56:29.013Z,14.85
2018-04-14T19:58:56.503Z,14.78
2018-04-14T20:01:26.940Z,14.73
2018-04-14T20:03:58.950Z,14.69
2018-04-14T20:06:26.499Z,14.66
2018-04-14T20:08:53.989Z,14.64
2018-04-14T20:11:21.473Z,14.67
2018-04-14T20:13:49.021Z,14.71
2018-04-14T20:16:16.562Z,14.81
2018-04-14T20:18:44.796Z,14.83
2018-04-14T20:21:12.341Z,14.85
2018-04-14T20:23:39.878Z,14.86
2018-04-14T20:26:07.379Z,14.84
2018-04-14T20:28:34.873Z,14.80
2018-04-14T20:31:02.358Z,14.74
2018-04-14T20:33:29.855Z,14.69
2018-04-14T20:35:57.343Z,14.62
2018-04-14T20:38:24.908Z,14.57
2018-04-14T20:40:52.438Z,14.54
2018-04-14T20:43:19.974Z,14.49
2018-04-14T20:45:47.470Z,14.39
2018-04-14T20:48:14.940Z,14.31
2018-04-14T20:50:42.582Z,14.23
2018-04-14T20:53:10.084Z,14.12
2018-04-14T20:55:37.639Z,13.99
2018-04-14T20:58:05.243Z,13.95
2018-04-14T21:00:32.764Z,14.06
2018-04-14T21:03:00.331Z,14.37
2018-04-14T21:05:27.979Z,14.29
2018-04-14T21:07:55.571Z,14.44
2018-04-14T21:10:23.038Z,14.29
2018-04-14T21:12:50.523Z,14.15
2018-04-14T21:15:18.145Z,14.45
2018-04-14T21:17:45.708Z,14.58
2018-04-14T21:20:13.212Z,14.47
2018-04-14T21:22:40.717Z,14.34
2018-04-14T21:25:08.214Z,14.51
2018-04-14T21:27:35.707Z,14.15
2018-04-14T21:30:03.222Z,13.97
2018-04-14T21:32:30.695Z,13.71
2018-04-14T21:34:58.191Z,13.50
2018-04-14T21:37:25.682Z,14.71
2018-04-14T21:39:53.165Z,14.32
2018-04-14T21:42:20.660Z,15.07
2018-04-14T21:44:48.145Z,14.83
2018-04-14T21:47:15.721Z,14.89
2018-04-14T21:49:44.065Z,14.67
2018-04-14T21:52:11.740Z,14.62
2018-04-14T21:54:39.225Z,14.70
2018-04-14T21:57:06.737Z,14.45
2018-04-14T21:59:34.222Z,14.54
2018-04-14T22:02:01.738Z,15.08
2018-04-14T22:04:29.370Z,14.97
2018-04-14T22:06:56.877Z,14.78
2018-04-14T22:09:24.394Z,14.62
2018-04-14T22:11:51.853Z,14.42
2018-04-14T22:14:31.230Z,14.05
2018-04-14T22:16:58.832Z,13.99
2018-04-14T22:19:26.419Z,14.03
2018-04-14T22:21:53.875Z,14.39
2018-04-14T22:24:21.442Z,14.72
2018-04-14T22:26:49.154Z,14.03
2018-04-14T22:29:19.630Z,13.76
2018-04-14T22:31:48.962Z,13.47
2018-04-14T22:34:16.456Z,13.36
2018-04-14T22:36:43.937Z,13.07
2018-04-14T22:39:11.664Z,12.99
2018-04-14T22:41:39.265Z,12.77
2018-04-14T22:44:06.742Z,12.68
2018-04-14T22:46:34.284Z,12.46
2018-04-14T22:49:02.108Z,12.43
2018-04-14T22:51:29.591Z,12.33
2018-04-14T22:53:57.075Z,12.22
2018-04-14T22:56:24.572Z,12.23
2018-04-14T22:58:52.068Z,12.13
2018-04-14T23:01:19.548Z,12.11
2018-04-14T23:03:47.008Z,12.12
2018-04-14T23:06:14.509Z,12.04
2018-04-14T23:08:42.094Z,12.14
2018-04-14T23:11:09.547Z,12.13
2018-04-14T23:13:37.031Z,12.21
2018-04-14T23:16:04.626Z,12.20
2018-04-14T23:18:32.133Z,12.13
2018-04-14T23:20:59.615Z,12.05
2018-04-14T23:23:27.101Z,11.99
2018-04-14T23:25:54.614Z,11.90
2018-04-14T23:28:22.108Z,11.83
2018-04-14T23:30:49.589Z,11.74
2018-04-14T23:33:17.075Z,11.73
2018-04-14T23:35:44.595Z,11.72
2018-04-14T23:38:12.163Z,11.70
2018-04-14T23:40:39.621Z,11.72
2018-04-14T23:43:07.145Z,11.69
2018-04-14T23:45:34.631Z,11.69
2018-04-14T23:48:02.145Z,11.65
2018-04-14T23:50:29.618Z,11.65
2018-04-14T23:52:57.180Z,11.64
2018-04-14T23:55:24.638Z,11.73
2018-04-14T23:57:52.115Z,11.76
